sensor_id;sensor_type;location;lat;lon;timestamp;temperature;humidity
21298;DHT22;10808;48.010;11.326;2022-07-23T00:02:11;24.30;99.90
21298;DHT22;10808;48.010;11.326;2022-07-23T00:04:37;24.30;99.90
21298;DHT22;10808;48.010;11.326;2022-07-23T00:07:03;24.30;99.90
21298;DHT22;10808;48.010;11.326;2022-07-23T00:09:29;24.20;99.90
21298;DHT22;10808;48.010;11.326;2022-07-23T00:11:57;24.20;99.90
21298;DHT22;10808;48.010;11.326;2022-07-23T00:14:23;24.20;99.90
21298;DHT22;10808;48.010;11.326;2022-07-23T00:16:49;24.10;99.90
21298;DHT22;10808;48.010;11.326;2022-07-23T00:19:15;24.10;99.90
21298;DHT22;10808;48.010;11.326;2022-07-23T00:21:41;24.10;99.90
21298;DHT22;10808;48.010;11.326;2022-07-23T00:24:07;24.00;99.90
21298;DHT22;10808;48.010;11.326;2022-07-23T00:26:33;24.00;99.90
21298;DHT22;10808;48.010;11.326;2022-07-23T00:28:59;24.00;99.90
21298;DHT22;10808;48.010;11.326;2022-07-23T00:31:25;23.90;99.90
21298;DHT22;10808;48.010;11.326;2022-07-23T00:33:53;23.90;99.90
21298;DHT22;10808;48.010;11.326;2022-07-23T00:36:23;23.90;99.90
21298;DHT22;10808;48.010;11.326;2022-07-23T00:38:49;23.90;99.90
21298;DHT22;10808;48.010;11.326;2022-07-23T00:41:16;23.90;99.90
21298;DHT22;10808;48.010;11.326;2022-07-23T00:43:42;23.90;99.90
21298;DHT22;10808;48.010;11.326;2022-07-23T00:46:08;23.90;99.90
21298;DHT22;10808;48.010;11.326;2022-07-23T00:48:34;23.80;99.90
21298;DHT22;10808;48.010;11.326;2022-07-23T00:51:00;23.80;99.90
21298;DHT22;10808;48.010;11.326;2022-07-23T00:53:26;23.80;99.90
21298;DHT22;10808;48.010;11.326;2022-07-23T00:55:53;23.80;99.90
21298;DHT22;10808;48.010;11.326;2022-07-23T00:58:19;23.70;99.90
21298;DHT22;10808;48.010;11.326;2022-07-23T01:00:46;23.60;99.90
21298;DHT22;10808;48.010;11.326;2022-07-23T01:03:12;23.60;99.90
21298;DHT22;10808;48.010;11.326;2022-07-23T01:05:38;23.50;99.90
21298;DHT22;10808;48.010;11.326;2022-07-23T01:08:05;23.40;99.90
21298;DHT22;10808;48.010;11.326;2022-07-23T01:10:31;23.40;99.90
21298;DHT22;10808;48.010;11.326;2022-07-23T01:12:59;23.20;99.90
21298;DHT22;10808;48.010;11.326;2022-07-23T01:15:25;23.10;99.90
21298;DHT22;10808;48.010;11.326;2022-07-23T01:17:51;22.90;99.90
21298;DHT22;10808;48.010;11.326;2022-07-23T01:20:18;22.60;99.90
21298;DHT22;10808;48.010;11.326;2022-07-23T01:22:44;22.20;99.90
21298;DHT22;10808;48.010;11.326;2022-07-23T01:25:10;21.90;99.90
21298;DHT22;10808;48.010;11.326;2022-07-23T01:27:36;21.60;99.90
21298;DHT22;10808;48.010;11.326;2022-07-23T01:30:03;21.40;99.90
21298;DHT22;10808;48.010;11.326;2022-07-23T01:32:30;21.10;99.90
21298;DHT22;10808;48.010;11.326;2022-07-23T01:34:56;20.90;99.90
21298;DHT22;10808;48.010;11.326;2022-07-23T01:37:22;20.70;99.90
21298;DHT22;10808;48.010;11.326;2022-07-23T01:39:48;20.60;99.90
21298;DHT22;10808;48.010;11.326;2022-07-23T01:42:14;20.50;99.90
21298;DHT22;10808;48.010;11.326;2022-07-23T01:44:40;20.50;99.90
21298;DHT22;10808;48.010;11.326;2022-07-23T01:47:06;20.50;99.90
21298;DHT22;10808;48.010;11.326;2022-07-23T01:49:32;20.50;99.90
21298;DHT22;10808;48.010;11.326;2022-07-23T01:51:58;20.40;99.90
21298;DHT22;10808;48.010;11.326;2022-07-23T01:54:29;20.40;99.90
21298;DHT22;10808;48.010;11.326;2022-07-23T01:56:55;20.50;99.90
21298;DHT22;10808;48.010;11.326;2022-07-23T01:59:22;20.50;99.90
21298;DHT22;10808;48.010;11.326;2022-07-23T02:01:48;20.50;99.90
21298;DHT22;10808;48.010;11.326;2022-07-23T02:04:20;20.40;99.90
21298;DHT22;10808;48.010;11.326;2022-07-23T02:06:47;20.30;99.90
21298;DHT22;10808;48.010;11.326;2022-07-23T02:09:13;20.20;99.90
21298;DHT22;10808;48.010;11.326;2022-07-23T02:11:39;20.10;99.90
21298;DHT22;10808;48.010;11.326;2022-07-23T02:14:05;20.10;99.90
21298;DHT22;10808;48.010;11.326;2022-07-23T02:16:31;20.10;99.90
21298;DHT22;10808;48.010;11.326;2022-07-23T02:18:57;20.10;99.90
21298;DHT22;10808;48.010;11.326;2022-07-23T02:21:23;20.00;99.90
21298;DHT22;10808;48.010;11.326;2022-07-23T02:23:50;20.00;99.90
21298;DHT22;10808;48.010;11.326;2022-07-23T02:26:16;20.00;99.90
21298;DHT22;10808;48.010;11.326;2022-07-23T02:28:42;20.10;99.90
21298;DHT22;10808;48.010;11.326;2022-07-23T02:31:08;20.20;99.90
21298;DHT22;10808;48.010;11.326;2022-07-23T02:33:34;20.30;99.90
21298;DHT22;10808;48.010;11.326;2022-07-23T02:36:00;20.30;99.90
21298;DHT22;10808;48.010;11.326;2022-07-23T02:38:26;20.30;99.90
21298;DHT22;10808;48.010;11.326;2022-07-23T02:40:52;20.30;99.90
21298;DHT22;10808;48.010;11.326;2022-07-23T02:43:18;20.30;99.90
21298;DHT22;10808;48.010;11.326;2022-07-23T02:45:44;20.30;99.90
21298;DHT22;10808;48.010;11.326;2022-07-23T02:48:10;20.30;99.90
21298;DHT22;10808;48.010;11.326;2022-07-23T02:50:38;20.30;99.90
21298;DHT22;10808;48.010;11.326;2022-07-23T02:53:04;20.40;99.90
21298;DHT22;10808;48.010;11.326;2022-07-23T02:55:31;20.50;99.90
21298;DHT22;10808;48.010;11.326;2022-07-23T02:57:57;20.50;99.90
21298;DHT22;10808;48.010;11.326;2022-07-23T03:00:23;20.60;99.90
21298;DHT22;10808;48.010;11.326;2022-07-23T03:02:49;20.60;99.90
21298;DHT22;10808;48.010;11.326;2022-07-23T03:05:15;20.60;99.90
21298;DHT22;10808;48.010;11.326;2022-07-23T03:07:41;20.60;99.90
21298;DHT22;10808;48.010;11.326;2022-07-23T03:10:07;20.60;99.90
21298;DHT22;10808;48.010;11.326;2022-07-23T03:12:34;20.60;99.90
21298;DHT22;10808;48.010;11.326;2022-07-23T03:15:00;20.60;99.90
21298;DHT22;10808;48.010;11.326;2022-07-23T03:17:26;20.60;99.90
21298;DHT22;10808;48.010;11.326;2022-07-23T03:19:52;20.60;99.90
21298;DHT22;10808;48.010;11.326;2022-07-23T03:22:18;20.60;99.90
21298;DHT22;10808;48.010;11.326;2022-07-23T03:24:44;20.60;99.90
21298;DHT22;10808;48.010;11.326;2022-07-23T03:27:27;20.60;99.90
21298;DHT22;10808;48.010;11.326;2022-07-23T03:29:54;20.60;99.90
21298;DHT22;10808;48.010;11.326;2022-07-23T03:32:21;20.50;99.90
21298;DHT22;10808;48.010;11.326;2022-07-23T03:34:48;20.40;99.90
21298;DHT22;10808;48.010;11.326;2022-07-23T03:37:15;20.30;99.90
21298;DHT22;10808;48.010;11.326;2022-07-23T03:39:41;20.30;99.90
21298;DHT22;10808;48.010;11.326;2022-07-23T03:42:08;20.20;99.90
21298;DHT22;10808;48.010;11.326;2022-07-23T03:44:34;20.20;99.90
21298;DHT22;10808;48.010;11.326;2022-07-23T03:47:03;20.20;99.90
21298;DHT22;10808;48.010;11.326;2022-07-23T03:49:29;20.20;99.90
21298;DHT22;10808;48.010;11.326;2022-07-23T03:51:55;20.20;99.90
21298;DHT22;10808;48.010;11.326;2022-07-23T03:54:21;20.20;99.90
21298;DHT22;10808;48.010;11.326;2022-07-23T03:56:48;20.20;99.90
21298;DHT22;10808;48.010;11.326;2022-07-23T03:59:14;20.20;99.90
21298;DHT22;10808;48.010;11.326;2022-07-23T04:01:40;20.20;99.90
21298;DHT22;10808;48.010;11.326;2022-07-23T04:04:06;20.30;99.90
21298;DHT22;10808;48.010;11.326;2022-07-23T04:06:35;20.30;99.90
21298;DHT22;10808;48.010;11.326;2022-07-23T04:09:02;20.30;99.90
21298;DHT22;10808;48.010;11.326;2022-07-23T04:11:28;20.30;99.90
21298;DHT22;10808;48.010;11.326;2022-07-23T04:13:54;20.30;99.90
21298;DHT22;10808;48.010;11.326;2022-07-23T04:16:20;20.40;99.90
21298;DHT22;10808;48.010;11.326;2022-07-23T04:18:46;20.40;99.90
21298;DHT22;10808;48.010;11.326;2022-07-23T04:21:12;20.40;99.90
21298;DHT22;10808;48.010;11.326;2022-07-23T04:23:38;20.40;99.90
21298;DHT22;10808;48.010;11.326;2022-07-23T04:26:04;20.40;99.90
21298;DHT22;10808;48.010;11.326;2022-07-23T04:28:30;20.50;99.90
21298;DHT22;10808;48.010;11.326;2022-07-23T04:30:57;20.50;99.90
21298;DHT22;10808;48.010;11.326;2022-07-23T04:33:23;20.50;99.90
21298;DHT22;10808;48.010;11.326;2022-07-23T04:35:49;20.50;99.90
21298;DHT22;10808;48.010;11.326;2022-07-23T04:38:15;20.50;99.90
21298;DHT22;10808;48.010;11.326;2022-07-23T04:40:41;20.50;99.90
21298;DHT22;10808;48.010;11.326;2022-07-23T04:43:07;20.50;99.90
21298;DHT22;10808;48.010;11.326;2022-07-23T04:45:33;20.50;99.90
21298;DHT22;10808;48.010;11.326;2022-07-23T04:47:59;20.50;99.90
21298;DHT22;10808;48.010;11.326;2022-07-23T04:50:25;20.50;99.90
21298;DHT22;10808;48.010;11.326;2022-07-23T04:52:51;20.50;99.90
21298;DHT22;10808;48.010;11.326;2022-07-23T04:55:17;20.40;99.90
21298;DHT22;10808;48.010;11.326;2022-07-23T04:57:43;20.50;99.90
21298;DHT22;10808;48.010;11.326;2022-07-23T05:00:11;20.50;99.90
21298;DHT22;10808;48.010;11.326;2022-07-23T05:02:37;20.50;99.90
21298;DHT22;10808;48.010;11.326;2022-07-23T05:05:03;20.50;99.90
21298;DHT22;10808;48.010;11.326;2022-07-23T05:07:29;20.50;99.90
21298;DHT22;10808;48.010;11.326;2022-07-23T05:09:55;20.50;99.90
21298;DHT22;10808;48.010;11.326;2022-07-23T05:12:21;20.60;99.90
21298;DHT22;10808;48.010;11.326;2022-07-23T05:14:47;20.60;99.90
21298;DHT22;10808;48.010;11.326;2022-07-23T05:17:13;20.60;99.90
21298;DHT22;10808;48.010;11.326;2022-07-23T05:19:39;20.60;99.90
21298;DHT22;10808;48.010;11.326;2022-07-23T05:22:05;20.60;99.90
21298;DHT22;10808;48.010;11.326;2022-07-23T05:24:31;20.60;99.90
21298;DHT22;10808;48.010;11.326;2022-07-23T05:26:57;20.60;99.90
21298;DHT22;10808;48.010;11.326;2022-07-23T05:29:23;20.60;99.90
21298;DHT22;10808;48.010;11.326;2022-07-23T05:31:49;20.60;99.90
21298;DHT22;10808;48.010;11.326;2022-07-23T05:34:17;20.60;99.90
21298;DHT22;10808;48.010;11.326;2022-07-23T05:36:43;20.60;99.90
21298;DHT22;10808;48.010;11.326;2022-07-23T05:39:09;20.60;99.90
21298;DHT22;10808;48.010;11.326;2022-07-23T05:41:35;20.60;99.90
21298;DHT22;10808;48.010;11.326;2022-07-23T05:44:01;20.60;99.90
21298;DHT22;10808;48.010;11.326;2022-07-23T05:46:27;20.60;99.90
21298;DHT22;10808;48.010;11.326;2022-07-23T05:48:53;20.70;99.90
21298;DHT22;10808;48.010;11.326;2022-07-23T05:51:23;20.70;99.90
21298;DHT22;10808;48.010;11.326;2022-07-23T05:53:50;20.70;99.90
21298;DHT22;10808;48.010;11.326;2022-07-23T05:56:16;20.70;99.90
21298;DHT22;10808;48.010;11.326;2022-07-23T05:58:42;20.70;99.90
21298;DHT22;10808;48.010;11.326;2022-07-23T06:01:09;20.80;99.90
21298;DHT22;10808;48.010;11.326;2022-07-23T06:03:35;20.70;99.90
21298;DHT22;10808;48.010;11.326;2022-07-23T06:06:01;20.70;99.90
21298;DHT22;10808;48.010;11.326;2022-07-23T06:08:27;20.60;99.90
21298;DHT22;10808;48.010;11.326;2022-07-23T06:10:53;20.60;99.90
21298;DHT22;10808;48.010;11.326;2022-07-23T06:13:19;20.60;99.90
21298;DHT22;10808;48.010;11.326;2022-07-23T06:15:45;20.70;99.90
21298;DHT22;10808;48.010;11.326;2022-07-23T06:18:11;20.70;99.90
21298;DHT22;10808;48.010;11.326;2022-07-23T06:20:37;20.70;99.90
21298;DHT22;10808;48.010;11.326;2022-07-23T06:23:04;20.70;99.90
21298;DHT22;10808;48.010;11.326;2022-07-23T06:25:30;20.70;99.90
21298;DHT22;10808;48.010;11.326;2022-07-23T06:27:56;20.70;99.90
21298;DHT22;10808;48.010;11.326;2022-07-23T06:30:22;20.70;99.90
21298;DHT22;10808;48.010;11.326;2022-07-23T06:32:48;20.70;99.90
21298;DHT22;10808;48.010;11.326;2022-07-23T06:35:15;20.70;99.90
21298;DHT22;10808;48.010;11.326;2022-07-23T06:37:41;20.70;99.90
21298;DHT22;10808;48.010;11.326;2022-07-23T06:40:08;20.70;99.90
21298;DHT22;10808;48.010;11.326;2022-07-23T06:42:34;20.80;99.90
21298;DHT22;10808;48.010;11.326;2022-07-23T06:45:06;20.80;99.90
21298;DHT22;10808;48.010;11.326;2022-07-23T06:47:32;20.90;99.90
21298;DHT22;10808;48.010;11.326;2022-07-23T06:49:58;20.90;99.90
21298;DHT22;10808;48.010;11.326;2022-07-23T06:52:24;20.90;99.90
21298;DHT22;10808;48.010;11.326;2022-07-23T06:54:52;20.90;99.90
21298;DHT22;10808;48.010;11.326;2022-07-23T06:57:18;20.90;99.90
21298;DHT22;10808;48.010;11.326;2022-07-23T06:59:44;21.00;99.90
21298;DHT22;10808;48.010;11.326;2022-07-23T07:02:10;21.00;99.90
21298;DHT22;10808;48.010;11.326;2022-07-23T07:04:36;21.10;99.90
21298;DHT22;10808;48.010;11.326;2022-07-23T07:07:03;21.20;99.90
21298;DHT22;10808;48.010;11.326;2022-07-23T07:09:29;21.20;99.90
21298;DHT22;10808;48.010;11.326;2022-07-23T07:11:55;21.20;99.90
21298;DHT22;10808;48.010;11.326;2022-07-23T07:14:22;21.30;99.90
21298;DHT22;10808;48.010;11.326;2022-07-23T07:16:48;21.30;99.90
21298;DHT22;10808;48.010;11.326;2022-07-23T07:19:14;21.30;99.90
21298;DHT22;10808;48.010;11.326;2022-07-23T07:21:40;21.30;99.90
21298;DHT22;10808;48.010;11.326;2022-07-23T07:24:06;21.30;99.90
21298;DHT22;10808;48.010;11.326;2022-07-23T07:26:32;21.40;99.90
21298;DHT22;10808;48.010;11.326;2022-07-23T07:28:58;21.30;99.90
21298;DHT22;10808;48.010;11.326;2022-07-23T07:31:24;21.30;99.90
21298;DHT22;10808;48.010;11.326;2022-07-23T07:33:50;21.30;99.90
21298;DHT22;10808;48.010;11.326;2022-07-23T07:36:16;21.30;99.90
21298;DHT22;10808;48.010;11.326;2022-07-23T07:38:43;21.30;99.90
21298;DHT22;10808;48.010;11.326;2022-07-23T07:41:09;21.30;99.90
21298;DHT22;10808;48.010;11.326;2022-07-23T07:43:36;21.30;99.90
21298;DHT22;10808;48.010;11.326;2022-07-23T07:46:03;21.30;99.90
21298;DHT22;10808;48.010;11.326;2022-07-23T07:48:29;21.30;99.90
21298;DHT22;10808;48.010;11.326;2022-07-23T07:50:55;21.30;99.90
21298;DHT22;10808;48.010;11.326;2022-07-23T07:53:22;21.40;99.90
21298;DHT22;10808;48.010;11.326;2022-07-23T07:55:48;21.40;99.90
21298;DHT22;10808;48.010;11.326;2022-07-23T07:58:14;21.40;99.90
21298;DHT22;10808;48.010;11.326;2022-07-23T08:00:40;21.50;99.90
21298;DHT22;10808;48.010;11.326;2022-07-23T08:03:06;21.50;99.90
21298;DHT22;10808;48.010;11.326;2022-07-23T08:05:32;21.50;99.90
21298;DHT22;10808;48.010;11.326;2022-07-23T08:07:58;21.60;99.90
21298;DHT22;10808;48.010;11.326;2022-07-23T08:10:26;21.60;99.90
21298;DHT22;10808;48.010;11.326;2022-07-23T08:12:54;21.70;99.90
21298;DHT22;10808;48.010;11.326;2022-07-23T08:15:22;21.90;99.90
21298;DHT22;10808;48.010;11.326;2022-07-23T08:17:49;21.90;99.90
21298;DHT22;10808;48.010;11.326;2022-07-23T08:20:18;21.90;99.90
21298;DHT22;10808;48.010;11.326;2022-07-23T08:22:50;22.00;99.90
21298;DHT22;10808;48.010;11.326;2022-07-23T08:25:29;22.00;99.90
21298;DHT22;10808;48.010;11.326;2022-07-23T08:27:56;22.10;99.90
21298;DHT22;10808;48.010;11.326;2022-07-23T08:30:22;22.20;99.90
21298;DHT22;10808;48.010;11.326;2022-07-23T08:32:50;22.30;99.90
21298;DHT22;10808;48.010;11.326;2022-07-23T08:35:17;22.30;99.90
21298;DHT22;10808;48.010;11.326;2022-07-23T08:37:43;22.40;99.90
21298;DHT22;10808;48.010;11.326;2022-07-23T08:40:10;22.50;99.90
21298;DHT22;10808;48.010;11.326;2022-07-23T08:42:36;22.50;99.90
21298;DHT22;10808;48.010;11.326;2022-07-23T08:45:03;22.60;99.90
21298;DHT22;10808;48.010;11.326;2022-07-23T08:47:30;22.60;99.90
21298;DHT22;10808;48.010;11.326;2022-07-23T08:49:58;22.70;99.90
21298;DHT22;10808;48.010;11.326;2022-07-23T08:52:26;22.70;99.90
21298;DHT22;10808;48.010;11.326;2022-07-23T08:54:53;22.80;99.90
21298;DHT22;10808;48.010;11.326;2022-07-23T08:57:19;22.80;99.90
21298;DHT22;10808;48.010;11.326;2022-07-23T08:59:45;22.80;99.90
21298;DHT22;10808;48.010;11.326;2022-07-23T09:02:12;22.90;99.90
21298;DHT22;10808;48.010;11.326;2022-07-23T09:04:38;22.90;99.90
21298;DHT22;10808;48.010;11.326;2022-07-23T09:07:04;22.90;99.90
21298;DHT22;10808;48.010;11.326;2022-07-23T09:09:30;23.00;99.90
21298;DHT22;10808;48.010;11.326;2022-07-23T09:12:08;23.10;99.90
21298;DHT22;10808;48.010;11.326;2022-07-23T09:14:43;23.20;99.90
21298;DHT22;10808;48.010;11.326;2022-07-23T09:17:17;23.20;99.90
21298;DHT22;10808;48.010;11.326;2022-07-23T09:19:44;23.40;99.90
21298;DHT22;10808;48.010;11.326;2022-07-23T09:22:21;23.60;99.90
21298;DHT22;10808;48.010;11.326;2022-07-23T09:25:05;23.80;99.90
21298;DHT22;10808;48.010;11.326;2022-07-23T09:30:15;24.10;99.90
21298;DHT22;10808;48.010;11.326;2022-07-23T09:32:42;24.20;99.90
21298;DHT22;10808;48.010;11.326;2022-07-23T09:35:08;24.50;99.90
21298;DHT22;10808;48.010;11.326;2022-07-23T09:37:34;24.70;99.90
21298;DHT22;10808;48.010;11.326;2022-07-23T09:40:09;24.90;99.90
21298;DHT22;10808;48.010;11.326;2022-07-23T09:42:37;25.20;99.90
21298;DHT22;10808;48.010;11.326;2022-07-23T09:45:03;25.30;99.90
21298;DHT22;10808;48.010;11.326;2022-07-23T09:47:31;25.70;99.90
21298;DHT22;10808;48.010;11.326;2022-07-23T09:52:34;26.50;99.90
21298;DHT22;10808;48.010;11.326;2022-07-23T09:55:03;26.70;99.90
21298;DHT22;10808;48.010;11.326;2022-07-23T09:57:31;26.90;99.90
21298;DHT22;10808;48.010;11.326;2022-07-23T10:00:00;27.40;99.90
21298;DHT22;10808;48.010;11.326;2022-07-23T10:02:28;27.60;99.30
21298;DHT22;10808;48.010;11.326;2022-07-23T10:04:54;27.60;98.50
21298;DHT22;10808;48.010;11.326;2022-07-23T10:07:26;27.60;98.10
21298;DHT22;10808;48.010;11.326;2022-07-23T10:09:53;27.60;98.40
21298;DHT22;10808;48.010;11.326;2022-07-23T10:12:20;27.70;99.00
21298;DHT22;10808;48.010;11.326;2022-07-23T10:15:06;27.70;98.50
21298;DHT22;10808;48.010;11.326;2022-07-23T10:17:34;27.80;97.80
21298;DHT22;10808;48.010;11.326;2022-07-23T10:20:00;27.80;97.90
21298;DHT22;10808;48.010;11.326;2022-07-23T10:22:30;27.80;97.70
21298;DHT22;10808;48.010;11.326;2022-07-23T10:33:32;27.30;96.70
21298;DHT22;10808;48.010;11.326;2022-07-23T10:36:19;27.10;97.00
21298;DHT22;10808;48.010;11.326;2022-07-23T10:38:57;27.00;96.60
21298;DHT22;10808;48.010;11.326;2022-07-23T10:41:51;26.90;97.30
21298;DHT22;10808;48.010;11.326;2022-07-23T10:44:19;27.00;98.20
21298;DHT22;10808;48.010;11.326;2022-07-23T10:47:02;27.10;97.40
21298;DHT22;10808;48.010;11.326;2022-07-23T10:49:34;26.90;97.10
21298;DHT22;10808;48.010;11.326;2022-07-23T10:52:20;26.80;97.10
21298;DHT22;10808;48.010;11.326;2022-07-23T10:54:55;26.60;97.70
21298;DHT22;10808;48.010;11.326;2022-07-23T10:57:26;26.60;98.20
21298;DHT22;10808;48.010;11.326;2022-07-23T11:02:34;26.40;98.20
21298;DHT22;10808;48.010;11.326;2022-07-23T11:05:09;26.30;98.40
21298;DHT22;10808;48.010;11.326;2022-07-23T11:07:36;26.30;97.90
21298;DHT22;10808;48.010;11.326;2022-07-23T11:10:04;26.10;98.10
21298;DHT22;10808;48.010;11.326;2022-07-23T11:15:06;25.90;98.70
21298;DHT22;10808;48.010;11.326;2022-07-23T11:25:29;25.60;99.00
21298;DHT22;10808;48.010;11.326;2022-07-23T11:28:17;25.60;98.80
21298;DHT22;10808;48.010;11.326;2022-07-23T11:30:47;25.50;99.10
21298;DHT22;10808;48.010;11.326;2022-07-23T11:35:41;25.40;99.00
21298;DHT22;10808;48.010;11.326;2022-07-23T11:38:22;25.40;99.30
21298;DHT22;10808;48.010;11.326;2022-07-23T11:40:53;25.50;99.70
21298;DHT22;10808;48.010;11.326;2022-07-23T11:43:21;25.50;99.80
21298;DHT22;10808;48.010;11.326;2022-07-23T11:45:49;25.60;99.90
21298;DHT22;10808;48.010;11.326;2022-07-23T11:48:30;25.60;99.30
21298;DHT22;10808;48.010;11.326;2022-07-23T11:50:57;25.50;99.30
21298;DHT22;10808;48.010;11.326;2022-07-23T11:53:29;25.40;99.30
21298;DHT22;10808;48.010;11.326;2022-07-23T11:56:06;25.50;99.90
21298;DHT22;10808;48.010;11.326;2022-07-23T11:58:32;25.40;99.50
21298;DHT22;10808;48.010;11.326;2022-07-23T12:00:59;25.40;99.40
21298;DHT22;10808;48.010;11.326;2022-07-23T12:03:25;25.30;99.40
21298;DHT22;10808;48.010;11.326;2022-07-23T12:05:56;25.20;99.30
21298;DHT22;10808;48.010;11.326;2022-07-23T12:08:22;25.20;99.50
21298;DHT22;10808;48.010;11.326;2022-07-23T12:10:48;25.30;99.60
21298;DHT22;10808;48.010;11.326;2022-07-23T12:13:17;25.30;99.90
21298;DHT22;10808;48.010;11.326;2022-07-23T12:15:46;25.40;99.80
21298;DHT22;10808;48.010;11.326;2022-07-23T12:18:25;25.40;99.60
21298;DHT22;10808;48.010;11.326;2022-07-23T12:20:54;25.40;99.70
21298;DHT22;10808;48.010;11.326;2022-07-23T12:23:24;25.40;99.50
21298;DHT22;10808;48.010;11.326;2022-07-23T12:25:51;25.40;99.50
21298;DHT22;10808;48.010;11.326;2022-07-23T12:28:29;25.40;99.90
21298;DHT22;10808;48.010;11.326;2022-07-23T12:30:57;25.40;99.90
21298;DHT22;10808;48.010;11.326;2022-07-23T12:33:28;25.40;99.90
21298;DHT22;10808;48.010;11.326;2022-07-23T12:35:57;25.50;99.50
21298;DHT22;10808;48.010;11.326;2022-07-23T12:38:25;25.60;99.30
21298;DHT22;10808;48.010;11.326;2022-07-23T12:40:54;25.60;99.60
21298;DHT22;10808;48.010;11.326;2022-07-23T12:43:32;25.60;99.80
21298;DHT22;10808;48.010;11.326;2022-07-23T12:46:06;25.70;99.40
21298;DHT22;10808;48.010;11.326;2022-07-23T12:48:35;25.80;99.30
21298;DHT22;10808;48.010;11.326;2022-07-23T12:51:16;25.70;98.60
21298;DHT22;10808;48.010;11.326;2022-07-23T12:53:45;25.70;98.60
21298;DHT22;10808;48.010;11.326;2022-07-23T12:56:19;25.80;98.60
21298;DHT22;10808;48.010;11.326;2022-07-23T13:04:16;25.90;98.60
21298;DHT22;10808;48.010;11.326;2022-07-23T13:06:53;25.90;98.90
21298;DHT22;10808;48.010;11.326;2022-07-23T13:09:23;25.90;98.60
21298;DHT22;10808;48.010;11.326;2022-07-23T13:11:50;25.90;98.90
21298;DHT22;10808;48.010;11.326;2022-07-23T13:14:19;26.00;99.40
21298;DHT22;10808;48.010;11.326;2022-07-23T13:16:46;26.00;99.50
21298;DHT22;10808;48.010;11.326;2022-07-23T13:19:12;25.90;98.80
21298;DHT22;10808;48.010;11.326;2022-07-23T13:21:40;26.00;99.10
21298;DHT22;10808;48.010;11.326;2022-07-23T13:24:07;26.00;99.50
21298;DHT22;10808;48.010;11.326;2022-07-23T13:26:33;26.00;99.70
21298;DHT22;10808;48.010;11.326;2022-07-23T13:28:59;26.00;99.50
21298;DHT22;10808;48.010;11.326;2022-07-23T13:31:25;25.90;99.60
21298;DHT22;10808;48.010;11.326;2022-07-23T13:33:52;25.80;99.30
21298;DHT22;10808;48.010;11.326;2022-07-23T13:36:18;25.70;99.60
21298;DHT22;10808;48.010;11.326;2022-07-23T13:38:44;25.70;99.90
21298;DHT22;10808;48.010;11.326;2022-07-23T13:41:10;25.70;99.90
21298;DHT22;10808;48.010;11.326;2022-07-23T13:43:36;25.70;99.90
21298;DHT22;10808;48.010;11.326;2022-07-23T13:46:02;25.60;99.90
21298;DHT22;10808;48.010;11.326;2022-07-23T13:48:28;25.60;99.90
21298;DHT22;10808;48.010;11.326;2022-07-23T13:50:55;25.50;99.90
21298;DHT22;10808;48.010;11.326;2022-07-23T13:53:22;25.60;99.90
21298;DHT22;10808;48.010;11.326;2022-07-23T13:55:50;25.50;99.90
21298;DHT22;10808;48.010;11.326;2022-07-23T13:58:16;25.50;99.90
21298;DHT22;10808;48.010;11.326;2022-07-23T14:00:45;25.50;99.90
21298;DHT22;10808;48.010;11.326;2022-07-23T14:03:11;25.50;99.90
21298;DHT22;10808;48.010;11.326;2022-07-23T14:05:37;25.50;99.90
21298;DHT22;10808;48.010;11.326;2022-07-23T14:08:04;25.50;99.90
21298;DHT22;10808;48.010;11.326;2022-07-23T14:10:30;25.40;99.90
21298;DHT22;10808;48.010;11.326;2022-07-23T14:12:56;25.40;99.90
21298;DHT22;10808;48.010;11.326;2022-07-23T14:15:25;25.30;99.90
21298;DHT22;10808;48.010;11.326;2022-07-23T14:17:53;25.20;99.90
21298;DHT22;10808;48.010;11.326;2022-07-23T14:20:19;25.10;99.90
21298;DHT22;10808;48.010;11.326;2022-07-23T14:22:46;25.00;99.90
21298;DHT22;10808;48.010;11.326;2022-07-23T14:25:13;25.00;99.90
21298;DHT22;10808;48.010;11.326;2022-07-23T14:27:39;25.00;99.90
21298;DHT22;10808;48.010;11.326;2022-07-23T14:30:07;25.00;99.90
21298;DHT22;10808;48.010;11.326;2022-07-23T14:32:35;25.00;99.90
21298;DHT22;10808;48.010;11.326;2022-07-23T14:35:01;24.90;99.90
21298;DHT22;10808;48.010;11.326;2022-07-23T14:37:27;25.00;99.90
21298;DHT22;10808;48.010;11.326;2022-07-23T14:39:53;25.10;99.90
21298;DHT22;10808;48.010;11.326;2022-07-23T14:42:19;25.40;99.90
21298;DHT22;10808;48.010;11.326;2022-07-23T14:44:46;25.50;99.90
21298;DHT22;10808;48.010;11.326;2022-07-23T14:47:12;25.50;99.90
21298;DHT22;10808;48.010;11.326;2022-07-23T14:49:38;25.50;99.90
21298;DHT22;10808;48.010;11.326;2022-07-23T14:52:05;25.50;99.90
21298;DHT22;10808;48.010;11.326;2022-07-23T14:54:31;25.60;99.90
21298;DHT22;10808;48.010;11.326;2022-07-23T14:56:58;25.60;99.90
21298;DHT22;10808;48.010;11.326;2022-07-23T14:59:26;25.60;99.90
21298;DHT22;10808;48.010;11.326;2022-07-23T15:01:52;25.60;99.90
21298;DHT22;10808;48.010;11.326;2022-07-23T15:04:18;25.70;99.90
21298;DHT22;10808;48.010;11.326;2022-07-23T15:06:44;25.70;99.90
21298;DHT22;10808;48.010;11.326;2022-07-23T15:09:10;25.70;99.90
21298;DHT22;10808;48.010;11.326;2022-07-23T15:11:36;25.90;99.90
21298;DHT22;10808;48.010;11.326;2022-07-23T15:14:04;26.00;99.90
21298;DHT22;10808;48.010;11.326;2022-07-23T15:16:31;26.20;99.90
21298;DHT22;10808;48.010;11.326;2022-07-23T15:18:57;26.30;99.70
21298;DHT22;10808;48.010;11.326;2022-07-23T15:21:23;26.10;98.80
21298;DHT22;10808;48.010;11.326;2022-07-23T15:23:50;26.10;99.30
21298;DHT22;10808;48.010;11.326;2022-07-23T15:26:17;26.20;99.60
21298;DHT22;10808;48.010;11.326;2022-07-23T15:28:44;26.30;99.20
21298;DHT22;10808;48.010;11.326;2022-07-23T15:31:10;26.40;99.50
21298;DHT22;10808;48.010;11.326;2022-07-23T15:33:36;26.60;99.30
21298;DHT22;10808;48.010;11.326;2022-07-23T15:36:03;26.70;99.50
21298;DHT22;10808;48.010;11.326;2022-07-23T15:38:29;26.80;98.90
21298;DHT22;10808;48.010;11.326;2022-07-23T15:40:56;27.00;98.50
21298;DHT22;10808;48.010;11.326;2022-07-23T15:43:23;27.30;98.50
21298;DHT22;10808;48.010;11.326;2022-07-23T15:45:50;27.50;98.30
21298;DHT22;10808;48.010;11.326;2022-07-23T15:48:17;27.70;97.80
21298;DHT22;10808;48.010;11.326;2022-07-23T15:50:43;27.80;97.00
21298;DHT22;10808;48.010;11.326;2022-07-23T15:53:09;27.80;96.80